メインページ
METAR-TAF:

METAR-TAF

空港 :

インカ・マンコ・カパック国際空港

フリアカ, ペルー

緯度: 15-29S, 経度: 070-09W, 海抜: 3826m

現時点の気象観測

当レポートは4時間12分前の02:00(UTC)に作成
南東の風 9kt
気温 13°C
湿度 35%
気圧 1037 hPa
視程10km以上
高度2000ftの雲は散在している

METAR: SPJL 130200Z 14009KT 9999 SCT020 13/M02 Q1037 RMK PP000

時間: 01:12 (06:12 UTC)

予報

当レポートは7時間12分前の23:00(UTC)に作成
予報は13日の 00時(UTC)から 13日の 24時(UTC)まで有効
東/南東の風 10kt
視程10km以上
高度2000ftの雲は散在している
13日の 0500時(UTC)から
変向風 4kt
視程10km以上
1,500メートル以下は雲なし、積乱雲なし
13日の 1800時(UTC)から
東/南東の風 10kt
視程10km以上
高度2000ftの雲は散在している
高度8000ftの雲は散在している

TAF: SPJL 122300Z 1300/1324 11010KT 9999 SCT020 TX21/1319Z TN05/1310Z FM130500 VRB04KT CAVOK FM131800 12010KT 9999 SCT020 SCT080

4,000以上の空港の気象観測と天気予報(METAR報とTAF報)

利用可能な観測所は地図上に黄色い丸と赤い丸で示す。

丸の上にカーソルを重ねると観測所名を参照できる。

次にクリックすると気象観測と天気予報を参照できる。

マップの切り替え:黒色「×」印の緑ボタンをクリックして拡大、「-」印の緑ボタンをクリックして縮小、緑色の三角印をクリックして隣りの地図に切り替え


METAR-TAF: